Terminal Aerodrome Forecast
Issued by NWS

Home | Current Version | Previous Version | Text Only | Print | Product List | Glossary On
Versions: 1 2 3 4 5 6 7 8 9 10 11 12 13 14 15 16 17 18 19 20
000
FTUS42 KTBW 190520
TAFPIE
TAF
KPIE 190520Z 1906/2006 04011KT P6SM FEW020 SCT250
     FM190800 04009KT P6SM SCT015 SCT250
     FM191500 05009G14KT P6SM SCT030 SCT250
     FM192200 05010G16KT P6SM SCT040 SCT250=

USA.gov is the U.S. government's official web portal to all federal, state and local government web resources and services.